EGGWEGNX

Guest
Details From EGGW - London Luton
To EGNX - East Midlands
Flight Number -
Tags generated
Created
Modified
Stats Distance 67 nm / 125 km
Max Altitude 6,100 ft / 1,859 m
Waypoints 3
Social Downloads 8
Likes 0
Share VATSIM

Download

Looking for another format? Having issues loading an existing format? Contact us
Advertisement - Login to hide

Notes

Basic altitude profile: - Ascent Rate: 2500ft/min - Ascent Speed: 250kts - Cruise Altitude: 35000ft - Cruise Speed: 420kts - Descent Rate: 1500ft/min - Descent Speed: 250kts

Route

EGGW HEIDI EGNX

ID Type Via Altitude Latitude Longitude Leg Dist Tot Dist Heading (true) Name
O EGGW APT - 0 ft / 0 m 51.87463˚ -0.36845˚ - 0 nm - London Luton
HEIDI FIX - 6,100 ft / 1,859 m 52.11222˚ -0.62333˚ 17 nm 17 nm 327° / 326° -
O EGNX APT - 0 ft / 0 m 52.83100˚ -1.32815˚ 50 nm 67 nm 329° / 329° East Midlands

Altitude Profile

Advertisement - Login to hide

EGGW

Details ICAO EGGW (LTN)
Name London Luton
Region United Kingdom
Timezone Europe/London (UTC+1.0)
Stats Elevation 526 ft / 160 m (AMSL)
Location 51.874629° -0.368450°
Runways 1
Magnetic Variation 0.507° W

METAR

EGGW 252020Z AUTO VRB04KT 8000 SCT011 15/14 Q1019

Decode

TAF

TAF EGGW 251702Z 2518/2618 VRB04KT 9999 SCT015 PROB30 TEMPO 2518/2521 8000 BKN014 BECMG 2521/2524 4000 HZ BKN004 PROB40 2601/2608 0200 FG BKN001 BECMG 2603/2606 03010KT BECMG 2608/2611 9999 NSW SCT020

Decode

Departure Runways

ID Width Length Bearing (true) Bearing (mag) Surface Threshold Offset Overrun Length
08 151 ft / 46 m 7,066 ft / 2,154 m 74.35° 74.86° Asphalt 0 ft / 0 m 200 ft / 61 m
26 151 ft / 46 m 7,066 ft / 2,154 m 254.38° 254.89° Asphalt 272 ft / 83 m 0 ft / 0 m

EGNX

Details ICAO EGNX (EMA)
Name East Midlands
Region United Kingdom
Timezone Europe/London (UTC+1.0)
Stats Elevation 306 ft / 93 m (AMSL)
Location 52.830999° -1.328155°
Runways 1
Magnetic Variation 0.966° W

METAR

EGNX 252020Z VRB06KT 0450 R27/1300 FG OVC001 13/13 Q1020

Decode

TAF

TAF AMD EGNX 251959Z 2519/2618 03006KT 1500 BR OVC003 TEMPO 2519/2609 0600 FG OVC001 PROB40 TEMPO 2520/2607 0300 BECMG 2609/2612 9999 NSW SCT025

Decode

Destination Runways

ID Width Length Bearing (true) Bearing (mag) Surface Threshold Offset Overrun Length
09 151 ft / 46 m 9,462 ft / 2,884 m 88.25° 89.22° Asphalt 587 ft / 179 m 92 ft / 28 m
27 151 ft / 46 m 9,462 ft / 2,884 m 268.29° 269.26° Asphalt 423 ft / 129 m 98 ft / 30 m

Approach Navaids

Runway Type Ident Frequency Range Bearing (true) Bearing (mag) Slope Elevation
09 Localiser IEMW 109.35 MHz 18 nm / 33 km 88.30° 89.26° - 306 ft / 93 m (AMSL)
09 Glidescope IEMW 109.35 MHz 10 nm / 19 km 88.27° 89.24° 3.00° 306 ft / 93 m (AMSL)
09 DME IEMW 109.35 MHz 18 nm / 33 km - - - 322 ft / 98 m (AMSL)
27 Localiser IEME 109.35 MHz 18 nm / 33 km 268.25° 269.21° - 306 ft / 93 m (AMSL)
27 Glidescope IEME 109.35 MHz 10 nm / 19 km 268.27° 269.24° 3.00° 306 ft / 93 m (AMSL)
27 DME IEME 109.35 MHz 18 nm / 33 km - - - 322 ft / 98 m (AMSL)

Popular Alternatives